createdAt,value
2023-04-26T00:04:30.204Z,62.54
2023-04-26T00:14:34.268Z,62.06
2023-04-26T00:24:40.158Z,61.70
2023-04-26T00:34:43.742Z,62.18
2023-04-26T00:44:50.570Z,62.68
2023-04-26T00:54:55.034Z,62.94
2023-04-26T01:05:02.591Z,63.13
2023-04-26T01:15:07.632Z,63.33
2023-04-26T01:25:13.735Z,63.80
2023-04-26T01:35:19.738Z,64.30
2023-04-26T01:45:25.376Z,64.53
2023-04-26T01:55:51.313Z,64.22
2023-04-26T02:05:54.879Z,63.82
2023-04-26T02:16:02.109Z,63.57
2023-04-26T02:26:05.800Z,63.45
2023-04-26T02:36:09.514Z,63.49
2023-04-26T02:46:14.156Z,63.70
2023-04-26T02:56:20.149Z,63.88
2023-04-26T03:06:23.916Z,64.17
2023-04-26T03:16:30.603Z,64.33
2023-04-26T03:26:36.122Z,64.18
2023-04-26T03:36:40.011Z,63.77
2023-04-26T03:46:48.050Z,63.72
2023-04-26T03:56:53.113Z,63.01
2023-04-26T04:06:57.252Z,62.04
2023-04-26T04:17:05.698Z,61.03
2023-04-26T04:27:09.352Z,60.56
2023-04-26T04:37:18.814Z,59.40
2023-04-26T04:47:24.592Z,52.13
2023-04-26T04:57:28.633Z,45.71
2023-04-26T05:07:33.925Z,39.57
2023-04-26T05:17:38.852Z,41.19
2023-04-26T05:27:54.437Z,43.77
2023-04-26T05:38:26.120Z,46.84
2023-04-26T05:48:30.199Z,48.70
2023-04-26T05:58:34.272Z,49.89
2023-04-26T06:08:41.687Z,50.70
2023-04-26T06:18:46.494Z,50.94
2023-04-26T06:28:50.205Z,50.45
2023-04-26T06:38:55.467Z,49.79
2023-04-26T06:48:59.117Z,48.83
2023-04-26T06:59:10.028Z,47.92
2023-04-26T07:10:19.026Z,47.54
2023-04-26T07:20:24.443Z,46.60
2023-04-26T07:30:28.038Z,44.39
2023-04-26T07:40:52.444Z,42.03
2023-04-26T07:50:57.210Z,40.04
2023-04-26T08:01:02.769Z,38.56
2023-04-26T08:11:10.334Z,37.99
2023-04-26T08:22:14.646Z,37.47
2023-04-26T08:32:18.289Z,36.71
2023-04-26T08:42:28.263Z,39.47
2023-04-26T08:52:33.192Z,40.08
2023-04-26T09:02:40.140Z,38.22
2023-04-26T09:12:44.036Z,34.93
2023-04-26T09:22:49.328Z,35.07
2023-04-26T09:33:02.768Z,37.29
2023-04-26T09:43:13.779Z,36.23
2023-04-26T09:53:33.614Z,36.03
2023-04-26T10:03:38.458Z,37.35
2023-04-26T10:13:44.735Z,37.43
2023-04-26T10:23:50.792Z,37.31
2023-04-26T10:34:25.042Z,35.72
2023-04-26T10:44:59.783Z,35.79
2023-04-26T10:55:06.488Z,36.64
2023-04-26T11:05:32.249Z,36.31
2023-04-26T11:15:36.367Z,35.99
2023-04-26T11:25:42.560Z,36.44
2023-04-26T11:35:53.888Z,37.25
2023-04-26T11:46:02.087Z,37.13
2023-04-26T11:56:16.904Z,38.08
2023-04-26T12:06:22.982Z,38.70
2023-04-26T12:16:27.253Z,39.75
2023-04-26T12:26:45.272Z,41.64
2023-04-26T12:36:50.606Z,41.93
2023-04-26T12:46:54.372Z,41.07
2023-04-26T12:56:58.018Z,40.79
2023-04-26T13:07:01.899Z,41.52
2023-04-26T13:17:09.868Z,41.22
2023-04-26T13:27:13.765Z,41.56
2023-04-26T13:37:20.303Z,44.50
2023-04-26T13:47:28.925Z,47.14
2023-04-26T13:57:32.588Z,49.78
2023-04-26T14:07:57.863Z,51.51
2023-04-26T14:18:01.520Z,50.54
2023-04-26T14:28:08.924Z,48.38
2023-04-26T14:38:12.607Z,47.71
2023-04-26T14:48:19.418Z,47.36
2023-04-26T14:58:26.429Z,47.35
2023-04-26T15:08:30.325Z,47.95
2023-04-26T15:18:39.379Z,47.75
2023-04-26T15:28:43.194Z,47.34
2023-04-26T15:38:50.051Z,47.34
2023-04-26T15:48:53.756Z,47.99
2023-04-26T15:58:59.455Z,51.62
2023-04-26T16:09:23.469Z,51.80
2023-04-26T16:19:29.551Z,51.54
2023-04-26T16:29:35.202Z,51.87
2023-04-26T16:39:38.992Z,51.99
2023-04-26T16:49:46.620Z,52.75
2023-04-26T16:59:51.827Z,52.83
2023-04-26T17:09:56.158Z,53.61
2023-04-26T17:20:04.333Z,54.21
2023-04-26T17:30:08.663Z,54.41
2023-04-26T17:40:12.642Z,54.54
2023-04-26T17:50:18.545Z,55.03
2023-04-26T18:00:24.190Z,55.52
2023-04-26T18:10:27.874Z,55.58
2023-04-26T18:20:37.078Z,54.58
2023-04-26T18:30:41.075Z,52.20
2023-04-26T18:40:48.089Z,50.94
2023-04-26T18:50:55.965Z,49.84
2023-04-26T19:00:59.575Z,49.31
2023-04-26T19:11:03.812Z,49.08
2023-04-26T19:21:15.337Z,48.09
2023-04-26T19:32:01.974Z,47.64
2023-04-26T19:42:11.624Z,47.43
2023-04-26T19:52:17.397Z,47.71
2023-04-26T20:02:22.775Z,48.22
2023-04-26T20:12:30.681Z,48.55
2023-04-26T20:22:36.472Z,49.08
2023-04-26T20:32:40.404Z,49.27
2023-04-26T20:42:44.086Z,49.50
2023-04-26T20:52:47.844Z,50.39
2023-04-26T21:02:53.539Z,50.77
2023-04-26T21:12:57.370Z,50.50
2023-04-26T21:23:06.979Z,50.55
2023-04-26T21:33:10.817Z,51.02
2023-04-26T21:43:19.004Z,51.32
2023-04-26T21:53:23.147Z,51.64
2023-04-26T22:03:30.729Z,51.96
2023-04-26T22:13:35.576Z,51.69
2023-04-26T22:23:39.320Z,51.50
2023-04-26T22:33:43.172Z,51.40
2023-04-26T22:43:53.219Z,51.05
2023-04-26T22:54:00.573Z,51.43
2023-04-26T23:04:05.414Z,51.13
2023-04-26T23:14:11.400Z,51.32
2023-04-26T23:24:15.135Z,51.31
2023-04-26T23:34:20.858Z,51.82
2023-04-26T23:44:26.767Z,51.76
2023-04-26T23:54:33.057Z,51.68
